createdAt,value
2019-05-11T00:04:06.621Z,37.97
2019-05-11T00:09:02.951Z,34.97
2019-05-11T00:13:56.906Z,32.93
2019-05-11T00:18:51.177Z,33.87
2019-05-11T00:23:45.157Z,33.47
2019-05-11T00:28:39.129Z,31.53
2019-05-11T00:33:33.096Z,35.30
2019-05-11T00:38:27.037Z,34.97
2019-05-11T00:43:21.015Z,32.30
2019-05-11T00:48:14.996Z,29.40
2019-05-11T00:53:09.274Z,30.93
2019-05-11T00:58:03.340Z,31.27
2019-05-11T01:02:57.287Z,29.40
2019-05-11T01:07:51.261Z,30.43
2019-05-11T01:12:45.319Z,30.73
2019-05-11T01:17:39.409Z,28.40
2019-05-11T01:22:33.383Z,30.20
2019-05-11T01:27:27.342Z,30.40
2019-05-11T01:32:21.298Z,27.67
2019-05-11T01:37:15.331Z,29.40
2019-05-11T01:42:09.212Z,29.37
2019-05-11T01:47:03.262Z,28.47
2019-05-11T01:51:57.219Z,28.77
2019-05-11T01:56:51.209Z,29.77
2019-05-11T02:01:45.183Z,31.03
2019-05-11T02:06:39.137Z,31.80
2019-05-11T02:11:33.171Z,31.13
2019-05-11T02:16:27.129Z,30.20
2019-05-11T02:21:21.133Z,36.97
2019-05-11T02:26:15.103Z,30.13
2019-05-11T02:31:09.089Z,32.50
2019-05-11T02:36:03.185Z,39.50
2019-05-11T02:40:57.261Z,29.07
2019-05-11T02:45:51.218Z,35.07
2019-05-11T02:50:45.599Z,30.73
2019-05-11T02:55:39.564Z,31.17
2019-05-11T03:00:36.627Z,29.10
2019-05-11T03:05:30.590Z,32.60
2019-05-11T03:10:24.576Z,30.63
2019-05-11T03:15:18.528Z,35.17
2019-05-11T03:20:12.490Z,34.33
2019-05-11T03:25:06.442Z,33.40
2019-05-11T03:30:01.673Z,34.83
2019-05-11T03:34:56.290Z,42.97
2019-05-11T03:39:50.207Z,41.03
2019-05-11T03:44:44.165Z,41.83
2019-05-11T03:49:38.144Z,44.07
2019-05-11T03:54:32.109Z,49.87
2019-05-11T03:59:26.058Z,52.30
2019-05-11T04:04:20.009Z,53.27
2019-05-11T04:09:13.973Z,52.27
2019-05-11T04:14:07.922Z,52.70
2019-05-11T04:19:01.874Z,56.13
2019-05-11T04:23:55.873Z,55.63
2019-05-11T04:28:49.820Z,53.87
2019-05-11T04:33:43.878Z,59.80
2019-05-11T04:38:37.937Z,58.07
2019-05-11T04:43:32.145Z,58.30
2019-05-11T04:48:26.134Z,54.10
2019-05-11T04:53:20.114Z,52.53
2019-05-11T04:58:14.164Z,49.27
2019-05-11T05:03:08.128Z,50.43
2019-05-11T05:08:09.505Z,46.53
2019-05-11T05:13:10.275Z,46.33
2019-05-11T05:17:53.877Z,41.37
2019-05-11T05:22:47.849Z,43.50
2019-05-11T05:27:41.778Z,44.10
2019-05-11T05:32:35.747Z,46.43
2019-05-11T05:37:29.708Z,38.27
2019-05-11T05:42:23.719Z,37.23
2019-05-11T05:47:17.761Z,36.93
2019-05-11T05:52:11.941Z,40.40
2019-05-11T05:57:05.881Z,34.73
2019-05-11T06:01:59.847Z,34.77
2019-05-11T06:06:54.346Z,32.23
2019-05-11T06:11:48.367Z,32.27
2019-05-11T06:16:42.346Z,29.60
2019-05-11T06:21:36.309Z,31.07
2019-05-11T06:26:30.398Z,31.83
2019-05-11T06:31:24.461Z,23.47
2019-05-11T06:36:18.424Z,26.30
2019-05-11T06:41:12.381Z,25.87
2019-05-11T06:46:06.330Z,22.57
2019-05-11T06:51:00.477Z,22.67
2019-05-11T06:55:54.454Z,27.63
2019-05-11T07:00:48.405Z,25.80
2019-05-11T07:05:43.281Z,27.30
2019-05-11T07:10:37.370Z,27.83
2019-05-11T07:15:31.342Z,24.00
2019-05-11T07:20:25.323Z,24.97
2019-05-11T07:25:19.411Z,21.83
2019-05-11T07:30:13.516Z,22.27
2019-05-11T07:35:08.402Z,23.97
2019-05-11T07:40:05.501Z,25.87
2019-05-11T07:44:59.483Z,27.63
2019-05-11T07:49:53.498Z,25.57
2019-05-11T07:54:52.602Z,28.73
2019-05-11T07:59:43.361Z,29.50
2019-05-11T08:04:37.921Z,32.23
2019-05-11T08:09:32.018Z,32.20
2019-05-11T08:14:28.758Z,31.87
2019-05-11T08:19:22.480Z,31.57
2019-05-11T08:24:18.031Z,31.03
2019-05-11T08:29:12.230Z,28.30
2019-05-11T08:34:08.664Z,31.50
2019-05-11T08:39:04.688Z,28.07
2019-05-11T08:43:58.915Z,30.10
2019-05-11T08:48:52.942Z,31.40
2019-05-11T08:53:48.007Z,34.63
2019-05-11T08:58:42.185Z,35.10
2019-05-11T09:03:38.553Z,36.53
2019-05-11T09:08:32.109Z,35.70
2019-05-11T09:13:27.920Z,40.20
2019-05-11T09:18:22.110Z,43.40
2019-05-11T09:23:30.890Z,53.93
2019-05-11T09:28:12.170Z,65.53
2019-05-11T09:33:08.404Z,71.50
2019-05-11T09:38:02.346Z,79.67
2019-05-11T09:42:58.322Z,83.30
2019-05-11T09:47:52.232Z,77.97
2019-05-11T09:52:48.722Z,70.67
2019-05-11T09:57:42.292Z,69.90
2019-05-11T10:02:38.539Z,75.90
2019-05-11T10:07:32.676Z,67.37
2019-05-11T10:12:28.606Z,61.97
2019-05-11T10:17:22.493Z,57.73
2019-05-11T10:22:18.554Z,53.13
2019-05-11T10:27:12.565Z,53.45
2019-05-11T10:32:07.952Z,51.98
2019-05-11T10:37:02.241Z,42.60
2019-05-11T10:41:58.385Z,39.58
2019-05-11T10:46:52.281Z,30.90
2019-05-11T10:51:48.503Z,30.45
2019-05-11T10:56:42.221Z,31.35
2019-05-11T11:01:38.000Z,24.80
2019-05-11T11:06:33.440Z,25.82
2019-05-11T11:11:27.962Z,26.37
2019-05-11T11:16:35.737Z,24.85
2019-05-11T11:21:22.529Z,22.37
2019-05-11T11:26:13.901Z,19.87
2019-05-11T11:31:08.072Z,20.45
2019-05-11T11:36:02.157Z,17.37
2019-05-11T11:40:58.511Z,22.55
2019-05-11T11:45:52.001Z,18.75
2019-05-11T11:50:48.053Z,20.00
2019-05-11T11:55:41.967Z,18.10
2019-05-11T12:00:36.085Z,15.53
2019-05-11T12:05:30.217Z,16.73
2019-05-11T12:10:24.222Z,17.77
2019-05-11T12:15:18.398Z,20.48
2019-05-11T12:20:12.678Z,15.85
2019-05-11T12:25:07.954Z,16.20
2019-05-11T12:30:05.354Z,19.32
2019-05-11T12:34:59.357Z,18.23
2019-05-11T12:39:53.332Z,17.57
2019-05-11T12:44:48.153Z,18.32
2019-05-11T12:49:42.503Z,15.32
2019-05-11T12:54:38.401Z,16.85
2019-05-11T12:59:32.529Z,14.25
2019-05-11T13:04:28.249Z,14.03
2019-05-11T13:09:22.426Z,12.95
2019-05-11T13:14:18.451Z,14.15
2019-05-11T13:19:12.385Z,15.25
2019-05-11T13:24:08.326Z,14.28
2019-05-11T13:29:02.471Z,16.93
2019-05-11T13:33:58.544Z,19.02
2019-05-11T13:38:52.369Z,17.40
2019-05-11T13:43:48.528Z,25.15
2019-05-11T13:48:42.429Z,16.80
2019-05-11T13:53:37.662Z,16.03
2019-05-11T13:58:31.789Z,21.55
2019-05-11T14:03:27.688Z,15.63
2019-05-11T14:08:21.776Z,15.48
2019-05-11T14:13:17.560Z,15.05
2019-05-11T14:18:12.162Z,9.63
2019-05-11T14:23:07.719Z,7.78
2019-05-11T14:28:02.031Z,10.00
2019-05-11T14:32:58.102Z,8.73
2019-05-11T14:37:51.996Z,7.95
2019-05-11T14:42:45.981Z,8.03
2019-05-11T14:47:42.690Z,8.95
2019-05-11T14:52:38.191Z,9.48
2019-05-11T14:57:31.943Z,5.67
2019-05-11T15:02:28.653Z,6.70
2019-05-11T15:07:22.717Z,8.35
2019-05-11T15:12:18.154Z,8.25
2019-05-11T15:17:12.253Z,6.40
2019-05-11T15:22:08.553Z,10.43
2019-05-11T15:27:02.089Z,11.43
2019-05-11T15:31:57.919Z,9.63
2019-05-11T15:36:52.056Z,11.30
2019-05-11T15:41:48.043Z,12.15
2019-05-11T15:46:42.255Z,9.45
2019-05-11T15:51:40.753Z,12.35
2019-05-11T15:56:32.511Z,11.88
2019-05-11T16:01:28.778Z,11.10
2019-05-11T16:06:22.470Z,9.13
2019-05-11T16:11:18.088Z,7.62
2019-05-11T16:16:13.863Z,11.60
2019-05-11T16:21:07.853Z,13.40
2019-05-11T16:26:02.329Z,14.38
2019-05-11T16:30:58.348Z,9.53
2019-05-11T16:35:52.310Z,10.20
2019-05-11T16:40:48.024Z,14.15
2019-05-11T16:45:42.314Z,13.55
2019-05-11T16:50:38.284Z,14.50
2019-05-11T16:55:32.325Z,18.05
2019-05-11T17:00:26.383Z,15.45
2019-05-11T17:05:26.650Z,13.48
2019-05-11T17:10:17.956Z,11.30
2019-05-11T17:15:12.412Z,13.58
2019-05-11T17:20:07.921Z,15.50
2019-05-11T17:25:04.931Z,14.07
2019-05-11T17:29:59.412Z,13.90
2019-05-11T17:34:53.426Z,13.98
2019-05-11T17:39:48.036Z,12.98
2019-05-11T17:44:42.116Z,14.05
2019-05-11T17:49:38.366Z,20.43
2019-05-11T17:54:32.106Z,15.18
2019-05-11T17:59:28.129Z,10.45
2019-05-11T18:04:25.047Z,9.58
2019-05-11T18:09:19.426Z,7.00
2019-05-11T18:14:13.448Z,4.67
2019-05-11T18:19:08.491Z,5.40
2019-05-11T18:24:03.109Z,7.83
2019-05-11T18:28:58.613Z,9.50
2019-05-11T18:33:52.775Z,5.50
2019-05-11T18:38:48.765Z,5.17
2019-05-11T18:43:42.698Z,5.05
2019-05-11T18:48:38.090Z,4.57
2019-05-11T18:53:32.323Z,5.87
2019-05-11T18:58:27.681Z,4.47
2019-05-11T19:03:22.026Z,4.47
2019-05-11T19:08:16.056Z,5.53
2019-05-11T19:13:10.213Z,4.90
2019-05-11T19:18:04.316Z,7.85
2019-05-11T19:22:58.967Z,5.03
2019-05-11T19:27:55.459Z,5.93
2019-05-11T19:32:50.768Z,10.40
2019-05-11T19:37:44.724Z,6.13
2019-05-11T19:42:53.846Z,4.97
2019-05-11T19:47:48.445Z,8.70
2019-05-11T19:52:42.612Z,6.13
2019-05-11T19:57:38.622Z,6.17
2019-05-11T20:02:32.844Z,4.03
2019-05-11T20:07:26.825Z,5.90
2019-05-11T20:12:20.963Z,7.73
2019-05-11T20:17:14.944Z,9.73
2019-05-11T20:22:09.071Z,11.23
2019-05-11T20:27:03.163Z,7.93
2019-05-11T20:31:58.545Z,7.53
2019-05-11T20:36:52.574Z,8.50
2019-05-11T20:41:47.741Z,6.23
2019-05-11T20:46:41.830Z,4.30
2019-05-11T20:51:37.163Z,4.60
2019-05-11T20:56:31.326Z,7.37
2019-05-11T21:01:28.294Z,4.23
2019-05-11T21:06:21.981Z,8.67
2019-05-11T21:11:17.990Z,8.03
2019-05-11T21:16:11.838Z,5.40
2019-05-11T21:21:05.869Z,5.40
2019-05-11T21:25:59.955Z,11.27
2019-05-11T21:30:54.061Z,9.37
2019-05-11T21:35:48.904Z,5.73
2019-05-11T21:40:43.575Z,7.80
2019-05-11T21:45:40.476Z,7.93
2019-05-11T21:50:33.512Z,10.83
2019-05-11T21:55:29.340Z,10.10
2019-05-11T22:00:25.486Z,6.93
2019-05-11T22:05:20.924Z,8.03
2019-05-11T22:10:17.286Z,7.97
2019-05-11T22:15:11.284Z,7.23
2019-05-11T22:20:07.575Z,7.10
2019-05-11T22:25:02.728Z,7.90
2019-05-11T22:29:58.945Z,8.27
2019-05-11T22:34:52.726Z,7.57
2019-05-11T22:39:46.741Z,8.10
2019-05-11T22:44:40.720Z,7.07
2019-05-11T22:49:34.778Z,8.90
2019-05-11T22:54:29.058Z,17.97
2019-05-11T22:59:23.084Z,9.93
2019-05-11T23:04:19.651Z,6.70
2019-05-11T23:09:13.523Z,8.83
2019-05-11T23:14:09.925Z,7.77
2019-05-11T23:19:03.443Z,8.77
2019-05-11T23:23:58.354Z,14.43
2019-05-11T23:28:52.501Z,14.43
2019-05-11T23:33:46.463Z,9.43
2019-05-11T23:38:40.428Z,8.33
2019-05-11T23:43:34.382Z,16.17
2019-05-11T23:48:28.358Z,13.10
2019-05-11T23:53:22.364Z,10.73
2019-05-11T23:58:19.160Z,7.63
